createdAt,value
2018-11-25T00:01:49.130Z,4.90
2018-11-25T00:04:17.487Z,4.80
2018-11-25T00:06:45.536Z,4.80
2018-11-25T00:09:13.668Z,4.80
2018-11-25T00:11:41.702Z,4.90
2018-11-25T00:14:09.748Z,4.90
2018-11-25T00:16:37.984Z,5.10
2018-11-25T00:19:06.324Z,5.10
2018-11-25T00:21:34.365Z,5.10
2018-11-25T00:24:02.856Z,5.10
2018-11-25T00:26:30.962Z,5.00
2018-11-25T00:28:58.981Z,4.90
2018-11-25T00:31:27.079Z,4.90
2018-11-25T00:33:55.381Z,4.80
2018-11-25T00:36:23.464Z,4.80
2018-11-25T00:38:51.695Z,4.80
2018-11-25T00:41:19.735Z,4.80
2018-11-25T00:43:47.780Z,4.80
2018-11-25T00:46:15.847Z,4.80
2018-11-25T00:48:43.936Z,4.80
2018-11-25T00:51:11.993Z,4.80
2018-11-25T00:53:40.605Z,4.70
2018-11-25T00:56:08.669Z,4.60
2018-11-25T00:58:36.773Z,4.50
2018-11-25T01:01:05.016Z,4.50
2018-11-25T01:03:33.040Z,4.40
2018-11-25T01:06:01.325Z,4.40
2018-11-25T01:08:29.465Z,4.30
2018-11-25T01:10:57.490Z,4.30
2018-11-25T01:13:25.533Z,4.20
2018-11-25T01:15:53.622Z,4.20
2018-11-25T01:18:21.704Z,4.20
2018-11-25T01:20:49.748Z,4.20
2018-11-25T01:23:18.101Z,4.20
2018-11-25T01:25:46.176Z,4.20
2018-11-25T01:28:14.239Z,4.30
2018-11-25T01:30:42.356Z,4.40
2018-11-25T01:33:10.405Z,4.40
2018-11-25T01:35:38.469Z,4.50
2018-11-25T01:38:06.944Z,4.60
2018-11-25T01:40:34.996Z,4.50
2018-11-25T01:43:33.929Z,4.50
2018-11-25T01:46:02.095Z,4.60
2018-11-25T01:48:30.289Z,4.60
2018-11-25T01:50:58.441Z,4.60
2018-11-25T01:53:26.600Z,4.60
2018-11-25T01:55:54.865Z,4.60
2018-11-25T01:58:23.294Z,4.60
2018-11-25T02:00:51.353Z,4.60
2018-11-25T02:03:19.400Z,4.70
2018-11-25T02:05:47.564Z,4.70
2018-11-25T02:08:15.957Z,4.70
2018-11-25T02:10:44.041Z,4.70
2018-11-25T02:13:12.306Z,4.70
2018-11-25T02:15:40.368Z,4.60
2018-11-25T02:18:08.448Z,4.60
2018-11-25T02:20:36.743Z,4.70
2018-11-25T02:23:05.252Z,4.80
2018-11-25T02:25:33.305Z,4.90
2018-11-25T02:28:01.402Z,5.00
2018-11-25T02:30:29.429Z,5.00
2018-11-25T02:32:57.464Z,5.20
2018-11-25T02:35:25.797Z,5.20
2018-11-25T02:37:53.852Z,5.30
2018-11-25T02:40:21.879Z,5.40
2018-11-25T02:42:49.927Z,5.30
2018-11-25T02:45:18.672Z,5.30
2018-11-25T02:47:47.032Z,5.30
2018-11-25T02:50:21.900Z,5.40
2018-11-25T02:52:50.097Z,5.30
2018-11-25T02:55:23.319Z,5.00
2018-11-25T02:57:51.392Z,4.70
2018-11-25T03:00:19.396Z,4.60
2018-11-25T03:02:47.651Z,4.50
2018-11-25T03:05:15.709Z,4.60
2018-11-25T03:07:44.114Z,4.70
2018-11-25T03:10:12.325Z,4.80
2018-11-25T03:12:40.397Z,4.80
2018-11-25T03:15:14.245Z,4.80
2018-11-25T03:17:42.340Z,4.90
2018-11-25T03:20:12.466Z,5.00
2018-11-25T03:22:40.551Z,4.90
2018-11-25T03:25:10.249Z,4.90
2018-11-25T03:27:38.325Z,4.90
2018-11-25T03:30:09.844Z,4.90
2018-11-25T03:32:38.064Z,4.80
2018-11-25T03:35:06.785Z,4.80
2018-11-25T03:37:35.003Z,4.90
2018-11-25T03:40:04.074Z,4.90
2018-11-25T03:42:32.184Z,4.90
2018-11-25T03:45:00.270Z,4.80
2018-11-25T03:47:28.424Z,4.80
2018-11-25T03:49:56.600Z,4.80
2018-11-25T03:52:24.723Z,4.90
2018-11-25T03:54:53.275Z,4.90
2018-11-25T03:57:21.471Z,5.00
2018-11-25T03:59:49.753Z,5.10
2018-11-25T04:02:17.858Z,5.20
2018-11-25T04:04:45.895Z,5.20
2018-11-25T04:07:13.939Z,5.30
2018-11-25T04:09:41.979Z,5.40
2018-11-25T04:12:10.239Z,5.40
2018-11-25T04:17:12.015Z,5.10
2018-11-25T04:19:40.184Z,5.00
2018-11-25T04:22:08.333Z,4.90
2018-11-25T04:24:36.398Z,4.90
2018-11-25T04:27:04.508Z,5.00
2018-11-25T04:29:32.547Z,5.00
2018-11-25T04:32:00.616Z,4.90
2018-11-25T04:34:29.026Z,4.90
2018-11-25T04:36:57.094Z,4.90
2018-11-25T04:39:25.160Z,4.90
2018-11-25T04:41:53.209Z,4.90
2018-11-25T04:44:21.327Z,5.00
2018-11-25T04:46:49.435Z,5.10
2018-11-25T04:49:17.499Z,5.10
2018-11-25T04:51:45.798Z,5.00
2018-11-25T04:54:13.839Z,5.00
2018-11-25T04:56:41.927Z,5.10
2018-11-25T04:59:10.001Z,5.10
2018-11-25T05:01:38.061Z,5.10
2018-11-25T05:04:06.511Z,5.10
2018-11-25T05:06:34.576Z,5.20
2018-11-25T05:09:02.649Z,5.10
2018-11-25T05:11:30.705Z,5.10
2018-11-25T05:13:59.158Z,5.20
2018-11-25T05:16:27.200Z,5.30
2018-11-25T05:18:55.384Z,5.50
2018-11-25T05:21:29.953Z,5.50
2018-11-25T05:23:58.079Z,5.50
2018-11-25T05:26:26.119Z,5.40
2018-11-25T05:28:54.152Z,5.30
2018-11-25T05:31:22.808Z,5.20
2018-11-25T05:33:50.904Z,5.20
2018-11-25T05:36:18.940Z,5.20
2018-11-25T05:38:47.380Z,5.20
2018-11-25T05:41:15.444Z,5.20
2018-11-25T05:43:43.476Z,5.20
2018-11-25T05:46:11.570Z,5.20
2018-11-25T05:48:39.634Z,5.10
2018-11-25T05:51:08.629Z,5.10
2018-11-25T05:53:36.744Z,5.10
2018-11-25T05:56:04.884Z,5.10
2018-11-25T05:58:32.921Z,5.10
2018-11-25T06:01:00.995Z,5.10
2018-11-25T06:03:29.028Z,5.20
2018-11-25T06:05:57.099Z,5.20
2018-11-25T06:08:25.395Z,5.30
2018-11-25T06:10:53.705Z,5.40
2018-11-25T06:13:21.780Z,5.60
2018-11-25T06:15:50.409Z,5.60
2018-11-25T06:18:18.530Z,5.60
2018-11-25T06:20:46.553Z,5.70
2018-11-25T06:23:14.712Z,5.70
2018-11-25T06:25:42.756Z,5.70
2018-11-25T06:28:10.828Z,5.70
2018-11-25T06:30:38.897Z,5.60
2018-11-25T06:33:06.933Z,5.40
2018-11-25T06:35:35.020Z,5.20
2018-11-25T06:38:03.229Z,5.20
2018-11-25T06:40:31.280Z,5.30
2018-11-25T06:42:59.349Z,5.30
2018-11-25T06:45:28.750Z,5.30
2018-11-25T06:47:57.596Z,5.30
2018-11-25T06:50:25.664Z,5.20
2018-11-25T06:52:53.740Z,5.20
2018-11-25T06:55:21.804Z,5.30
2018-11-25T06:57:49.874Z,5.30
2018-11-25T07:00:20.951Z,5.40
2018-11-25T07:02:49.021Z,5.40
2018-11-25T07:05:17.169Z,5.40
2018-11-25T07:07:45.253Z,5.40
2018-11-25T07:10:19.171Z,5.30
2018-11-25T07:12:48.352Z,5.30
2018-11-25T07:15:17.425Z,5.30
2018-11-25T07:17:45.800Z,5.30
2018-11-25T07:20:15.101Z,5.30
2018-11-25T07:22:43.743Z,5.20
2018-11-25T07:25:13.969Z,5.20
2018-11-25T07:27:42.040Z,5.30
2018-11-25T07:30:13.433Z,5.30
2018-11-25T07:32:41.508Z,5.30
2018-11-25T07:35:09.550Z,5.40
2018-11-25T07:37:37.726Z,5.50
2018-11-25T07:40:09.596Z,5.60
2018-11-25T07:42:37.644Z,5.70
2018-11-25T07:45:08.666Z,5.80
2018-11-25T07:47:36.702Z,5.90
2018-11-25T07:50:06.334Z,6.00
2018-11-25T07:52:34.375Z,6.00
2018-11-25T07:55:02.421Z,5.90
2018-11-25T07:57:30.545Z,5.90
2018-11-25T07:59:58.648Z,6.00
2018-11-25T08:02:27.817Z,6.00
2018-11-25T08:04:54.931Z,6.00
2018-11-25T08:07:23.185Z,6.10
2018-11-25T08:09:51.248Z,6.00
2018-11-25T08:12:19.325Z,6.00
2018-11-25T08:14:47.436Z,6.00
2018-11-25T08:17:15.629Z,6.00
2018-11-25T08:19:43.849Z,6.10
2018-11-25T08:22:11.951Z,6.20
2018-11-25T08:24:40.076Z,6.30
2018-11-25T08:27:08.224Z,6.30
2018-11-25T08:29:36.302Z,6.40
2018-11-25T08:32:04.327Z,6.30
2018-11-25T08:34:32.400Z,6.20
2018-11-25T08:37:00.569Z,6.10
2018-11-25T08:39:28.627Z,6.00
2018-11-25T08:41:56.750Z,5.90
2018-11-25T08:44:24.965Z,5.90
2018-11-25T08:46:53.221Z,6.00
2018-11-25T08:49:21.320Z,6.00
2018-11-25T08:51:49.643Z,6.10
2018-11-25T08:54:17.729Z,6.30
2018-11-25T08:56:45.892Z,6.30
2018-11-25T08:59:14.088Z,6.30
2018-11-25T09:01:42.187Z,6.30
2018-11-25T09:04:10.384Z,6.30
2018-11-25T09:06:38.723Z,6.30
2018-11-25T09:09:08.244Z,6.30
2018-11-25T09:11:36.448Z,6.50
2018-11-25T09:14:04.552Z,6.50
2018-11-25T09:16:32.711Z,6.50
2018-11-25T09:19:01.857Z,6.50
2018-11-25T09:21:31.089Z,6.40
2018-11-25T09:23:59.897Z,6.50
2018-11-25T09:26:28.693Z,6.40
2018-11-25T09:28:56.878Z,6.40
2018-11-25T09:31:25.690Z,6.50
2018-11-25T09:33:54.615Z,6.60
2018-11-25T09:36:23.413Z,6.60
2018-11-25T09:38:52.705Z,6.60
2018-11-25T09:41:21.370Z,6.70
2018-11-25T09:43:49.939Z,6.80
2018-11-25T09:46:18.363Z,6.80
2018-11-25T09:48:47.399Z,6.90
2018-11-25T09:51:15.578Z,6.90
2018-11-25T09:53:43.910Z,6.90
2018-11-25T09:56:12.232Z,7.00
2018-11-25T09:58:40.752Z,7.10
2018-11-25T10:01:08.840Z,7.10
2018-11-25T10:03:37.094Z,7.10
2018-11-25T10:06:06.134Z,7.10
2018-11-25T10:08:34.267Z,7.10
2018-11-25T10:11:02.641Z,7.10
2018-11-25T10:13:30.996Z,7.10
2018-11-25T10:15:59.047Z,7.10
2018-11-25T10:18:27.423Z,7.10
2018-11-25T10:20:55.511Z,7.00
2018-11-25T10:23:24.821Z,6.90
2018-11-25T10:25:52.910Z,6.80
2018-11-25T10:28:20.996Z,6.90
2018-11-25T10:30:49.242Z,6.90
2018-11-25T10:33:17.322Z,6.90
2018-11-25T10:35:45.394Z,7.00
2018-11-25T10:38:13.538Z,7.00
2018-11-25T10:40:41.568Z,6.90
2018-11-25T10:43:09.670Z,6.90
2018-11-25T10:45:38.294Z,6.90
2018-11-25T10:48:06.357Z,7.10
2018-11-25T10:50:34.536Z,7.20
2018-11-25T10:53:02.893Z,7.30
2018-11-25T10:58:05.584Z,7.30
2018-11-25T11:00:40.234Z,7.50
2018-11-25T11:03:14.829Z,7.60
2018-11-25T11:05:48.431Z,7.40
2018-11-25T11:08:16.604Z,7.30
2018-11-25T11:10:45.811Z,7.40
2018-11-25T11:13:14.015Z,7.30
2018-11-25T11:15:42.096Z,7.30
2018-11-25T11:18:10.233Z,7.40
2018-11-25T11:20:38.502Z,7.50
2018-11-25T11:23:06.828Z,7.50
2018-11-25T11:25:35.290Z,7.40
2018-11-25T11:28:03.405Z,7.40
2018-11-25T11:30:32.827Z,7.40
2018-11-25T11:33:00.923Z,7.30
2018-11-25T11:35:29.228Z,7.10
2018-11-25T11:37:57.309Z,7.00
2018-11-25T11:40:25.549Z,7.00
2018-11-25T11:42:54.523Z,6.90
2018-11-25T11:45:22.954Z,6.80
2018-11-25T11:47:51.061Z,6.80
2018-11-25T11:50:21.247Z,6.70
2018-11-25T11:52:49.360Z,6.80
2018-11-25T11:55:17.972Z,6.80
2018-11-25T11:57:46.954Z,6.80
2018-11-25T12:00:25.110Z,6.80
2018-11-25T12:02:53.168Z,6.70
2018-11-25T12:05:21.173Z,6.60
2018-11-25T12:07:49.262Z,6.60
2018-11-25T12:10:17.800Z,6.70
2018-11-25T12:12:45.861Z,6.70
2018-11-25T12:15:15.391Z,6.70
2018-11-25T12:17:43.506Z,6.60
2018-11-25T12:20:11.871Z,6.70
2018-11-25T12:22:40.160Z,6.70
2018-11-25T12:25:10.368Z,6.70
2018-11-25T12:27:38.756Z,6.70
2018-11-25T12:30:09.314Z,6.70
2018-11-25T12:32:37.483Z,6.70
2018-11-25T12:35:06.638Z,6.70
2018-11-25T12:37:36.039Z,6.70
2018-11-25T12:40:03.512Z,6.60
2018-11-25T12:42:31.858Z,6.60
2018-11-25T12:45:00.913Z,6.60
2018-11-25T12:47:29.561Z,6.60
2018-11-25T12:49:58.222Z,6.60
2018-11-25T12:52:26.729Z,6.50
2018-11-25T12:54:54.966Z,6.60
2018-11-25T13:02:53.691Z,6.60
2018-11-25T13:05:22.000Z,6.50
2018-11-25T13:07:50.477Z,6.60
2018-11-25T13:10:19.722Z,6.50
2018-11-25T13:12:47.800Z,6.50
2018-11-25T13:15:15.868Z,6.50
2018-11-25T13:17:44.119Z,6.50
2018-11-25T13:20:14.129Z,6.50
2018-11-25T13:22:42.220Z,6.50
2018-11-25T13:25:11.637Z,6.60
2018-11-25T13:27:39.872Z,6.60
2018-11-25T13:30:15.087Z,6.60
2018-11-25T13:32:43.401Z,6.60
2018-11-25T13:35:11.585Z,6.50
2018-11-25T13:37:39.663Z,6.50
2018-11-25T13:40:09.697Z,6.40
2018-11-25T13:42:37.777Z,6.40
2018-11-25T13:45:07.013Z,6.40
2018-11-25T13:47:35.064Z,6.40
2018-11-25T13:50:03.179Z,6.40
2018-11-25T13:52:31.711Z,6.50
2018-11-25T13:54:59.778Z,6.40
2018-11-25T13:57:27.792Z,6.40
2018-11-25T13:59:55.969Z,6.40
2018-11-25T14:02:24.048Z,6.40
2018-11-25T14:04:52.150Z,6.40
2018-11-25T14:07:26.941Z,6.50
2018-11-25T14:09:55.631Z,6.50
2018-11-25T14:12:23.210Z,6.50
2018-11-25T14:14:51.566Z,6.60
2018-11-25T14:17:19.608Z,6.50
2018-11-25T14:19:47.687Z,6.50
2018-11-25T14:22:15.977Z,6.50
2018-11-25T14:24:44.015Z,6.50
2018-11-25T14:27:12.154Z,6.50
2018-11-25T14:29:40.649Z,6.60
2018-11-25T14:32:08.764Z,6.50
2018-11-25T14:34:36.840Z,6.50
2018-11-25T14:37:05.086Z,6.50
2018-11-25T14:39:33.258Z,6.50
2018-11-25T14:42:01.312Z,6.50
2018-11-25T14:44:29.353Z,6.60
2018-11-25T14:46:57.403Z,6.60
2018-11-25T14:49:25.470Z,6.60
2018-11-25T14:51:53.861Z,6.70
2018-11-25T14:54:21.916Z,6.60
2018-11-25T14:56:49.980Z,6.60
2018-11-25T14:59:18.182Z,6.60
2018-11-25T15:01:46.279Z,6.50
2018-11-25T15:04:14.307Z,6.50
2018-11-25T15:06:42.504Z,6.50
2018-11-25T15:09:11.357Z,6.50
2018-11-25T15:11:39.432Z,6.50
2018-11-25T15:14:08.149Z,6.40
2018-11-25T15:16:36.510Z,6.40
2018-11-25T15:19:05.065Z,6.40
2018-11-25T15:21:33.149Z,6.40
2018-11-25T15:24:01.218Z,6.40
2018-11-25T15:26:29.262Z,6.40
2018-11-25T15:28:57.342Z,6.40
2018-11-25T15:31:25.542Z,6.40
2018-11-25T15:33:53.616Z,6.50
2018-11-25T15:36:21.717Z,6.50
2018-11-25T15:38:49.864Z,6.50
2018-11-25T15:41:17.928Z,6.50
2018-11-25T15:43:46.026Z,6.50
2018-11-25T15:46:14.066Z,6.50
2018-11-25T15:48:42.146Z,6.40
2018-11-25T15:51:10.344Z,6.40
2018-11-25T15:53:38.385Z,6.40
2018-11-25T15:56:09.899Z,6.40
2018-11-25T15:58:37.975Z,6.40
2018-11-25T16:01:06.221Z,6.40
2018-11-25T16:03:34.291Z,6.40
2018-11-25T16:06:08.582Z,6.40
2018-11-25T16:08:38.389Z,6.30
2018-11-25T16:11:05.697Z,6.30
2018-11-25T16:13:33.758Z,6.30
2018-11-25T16:16:01.857Z,6.40
2018-11-25T16:18:29.923Z,6.40
2018-11-25T16:20:58.030Z,6.40
2018-11-25T16:23:26.247Z,6.40
2018-11-25T16:25:55.937Z,6.30
2018-11-25T16:28:31.126Z,6.30
2018-11-25T16:30:59.168Z,6.30
2018-11-25T16:33:27.537Z,6.40
2018-11-25T16:35:55.908Z,6.40
2018-11-25T16:38:23.947Z,6.30
2018-11-25T16:40:51.966Z,6.30
2018-11-25T16:43:20.139Z,6.40
2018-11-25T16:45:48.199Z,6.40
2018-11-25T16:48:16.329Z,6.50
2018-11-25T16:50:44.393Z,6.50
2018-11-25T16:53:12.431Z,6.40
2018-11-25T16:55:40.474Z,6.30
2018-11-25T16:58:08.860Z,6.30
2018-11-25T17:00:36.944Z,6.30
2018-11-25T17:03:05.161Z,6.30
2018-11-25T17:05:35.124Z,6.40
2018-11-25T17:08:11.818Z,6.40
2018-11-25T17:10:40.015Z,6.50
2018-11-25T17:13:08.153Z,6.50
2018-11-25T17:15:36.214Z,6.50
2018-11-25T17:18:04.401Z,6.50
2018-11-25T17:20:32.424Z,6.50
2018-11-25T17:23:00.481Z,6.40
2018-11-25T17:25:28.571Z,6.30
2018-11-25T17:27:56.604Z,6.30
2018-11-25T17:30:24.652Z,6.30
2018-11-25T17:32:52.829Z,6.30
2018-11-25T17:35:25.915Z,6.30
2018-11-25T17:37:54.023Z,6.30
2018-11-25T17:40:22.077Z,6.30
2018-11-25T17:42:50.341Z,6.40
2018-11-25T17:45:18.479Z,6.40
2018-11-25T17:47:46.543Z,6.30
2018-11-25T17:50:22.169Z,6.20
2018-11-25T17:52:50.327Z,6.10
2018-11-25T17:55:19.241Z,6.00
2018-11-25T17:57:47.323Z,6.00
2018-11-25T18:00:29.211Z,6.00
2018-11-25T18:02:57.712Z,5.90
2018-11-25T18:05:25.768Z,6.00
2018-11-25T18:07:53.881Z,6.00
2018-11-25T18:10:22.155Z,6.00
2018-11-25T18:12:50.210Z,6.00
2018-11-25T18:15:19.534Z,5.90
2018-11-25T18:17:50.850Z,5.90
2018-11-25T18:20:18.959Z,6.00
2018-11-25T18:22:48.104Z,6.00
2018-11-25T18:25:16.334Z,6.00
2018-11-25T18:27:44.417Z,5.90
2018-11-25T18:30:14.646Z,5.90
2018-11-25T18:32:43.407Z,5.90
2018-11-25T18:35:11.492Z,5.90
2018-11-25T18:37:39.910Z,5.80
2018-11-25T18:40:10.677Z,5.80
2018-11-25T18:42:38.952Z,5.80
2018-11-25T18:45:09.709Z,5.90
2018-11-25T18:47:37.792Z,5.90
2018-11-25T18:50:11.150Z,5.90
2018-11-25T18:52:39.446Z,5.90
2018-11-25T18:55:06.661Z,5.90
2018-11-25T18:57:34.705Z,5.80
2018-11-25T19:00:03.525Z,5.80
2018-11-25T19:02:42.366Z,5.90
2018-11-25T19:05:10.532Z,5.80
2018-11-25T19:07:38.623Z,5.80
2018-11-25T19:10:13.812Z,5.80
2018-11-25T19:12:44.273Z,5.80
2018-11-25T19:15:11.230Z,5.80
2018-11-25T19:17:39.269Z,5.80
2018-11-25T19:20:13.815Z,5.80
2018-11-25T19:22:42.273Z,5.80
2018-11-25T19:25:11.772Z,5.70
2018-11-25T19:27:39.991Z,5.70
2018-11-25T19:30:13.065Z,5.70
2018-11-25T19:32:41.570Z,5.80
2018-11-25T19:35:11.946Z,5.80
2018-11-25T19:37:40.492Z,5.70
2018-11-25T19:40:14.906Z,5.70
2018-11-25T19:42:43.385Z,5.70
2018-11-25T19:45:14.915Z,5.80
2018-11-25T19:47:43.079Z,5.80
2018-11-25T19:50:14.529Z,5.70
2018-11-25T19:52:42.803Z,5.70
2018-11-25T19:55:11.198Z,5.70
2018-11-25T19:57:39.673Z,5.70
2018-11-25T20:00:10.927Z,5.70
2018-11-25T20:02:38.994Z,5.60
2018-11-25T20:05:08.148Z,5.60
2018-11-25T20:07:36.272Z,5.60
2018-11-25T20:10:04.710Z,5.60
2018-11-25T20:12:38.512Z,5.60
2018-11-25T20:15:07.008Z,5.50
2018-11-25T20:17:35.084Z,5.50
2018-11-25T20:20:03.562Z,5.50
2018-11-25T20:22:31.637Z,5.60
2018-11-25T20:24:59.834Z,5.50
2018-11-25T20:27:33.785Z,5.50
2018-11-25T20:30:02.281Z,5.50
2018-11-25T20:32:35.682Z,5.40
2018-11-25T20:35:03.807Z,5.40
2018-11-25T20:37:31.885Z,5.40
2018-11-25T20:40:00.284Z,5.40
2018-11-25T20:42:28.422Z,5.30
2018-11-25T20:44:56.972Z,5.30
2018-11-25T20:47:25.076Z,5.30
2018-11-25T20:49:53.163Z,5.30
2018-11-25T20:52:26.706Z,5.30
2018-11-25T20:54:54.777Z,5.20
2018-11-25T20:57:22.840Z,5.30
2018-11-25T20:59:51.328Z,5.40
2018-11-25T21:02:20.359Z,5.40
2018-11-25T21:04:47.525Z,5.40
2018-11-25T21:07:15.641Z,5.40
2018-11-25T21:09:43.688Z,5.40
2018-11-25T21:12:11.711Z,5.40
2018-11-25T21:14:39.946Z,5.40
2018-11-25T21:17:08.046Z,5.30
2018-11-25T21:20:08.439Z,5.30
2018-11-25T21:22:36.531Z,5.40
2018-11-25T21:25:07.174Z,5.30
2018-11-25T21:27:35.360Z,5.20
2018-11-25T21:30:04.424Z,5.20
2018-11-25T21:32:32.488Z,5.20
2018-11-25T21:35:00.567Z,5.30
2018-11-25T21:37:28.603Z,5.30
2018-11-25T21:39:56.772Z,5.30
2018-11-25T21:42:25.003Z,5.30
2018-11-25T21:44:53.065Z,5.20
2018-11-25T21:47:21.526Z,5.20
2018-11-25T21:49:49.859Z,5.20
2018-11-25T21:52:17.889Z,5.10
2018-11-25T21:54:46.017Z,5.10
2018-11-25T21:57:14.069Z,5.20
2018-11-25T21:59:42.149Z,5.20
2018-11-25T22:02:10.435Z,5.20
2018-11-25T22:04:38.577Z,5.20
2018-11-25T22:07:06.647Z,5.20
2018-11-25T22:09:34.697Z,5.10
2018-11-25T22:12:02.806Z,5.10
2018-11-25T22:14:30.876Z,5.10
2018-11-25T22:16:59.333Z,5.10
2018-11-25T22:19:27.421Z,5.20
2018-11-25T22:21:55.484Z,5.20
2018-11-25T22:24:23.548Z,5.20
2018-11-25T22:26:51.604Z,5.20
2018-11-25T22:29:19.679Z,5.20
2018-11-25T22:31:47.742Z,5.10
2018-11-25T22:34:16.381Z,5.20
2018-11-25T22:36:44.447Z,5.20
2018-11-25T22:39:12.504Z,5.20
2018-11-25T22:41:40.542Z,5.20
2018-11-25T22:44:08.796Z,5.10
2018-11-25T22:46:36.864Z,5.20
2018-11-25T22:49:05.801Z,5.20
2018-11-25T22:51:33.850Z,5.10
2018-11-25T22:54:02.023Z,5.10
2018-11-25T22:56:30.109Z,5.10
2018-11-25T22:58:58.168Z,5.10
2018-11-25T23:01:26.628Z,5.00
2018-11-25T23:04:06.206Z,4.90
2018-11-25T23:06:45.778Z,4.90
2018-11-25T23:09:13.901Z,4.90
2018-11-25T23:11:42.468Z,4.90
2018-11-25T23:14:10.734Z,4.90
2018-11-25T23:16:38.793Z,5.00
2018-11-25T23:19:06.881Z,5.00
2018-11-25T23:21:34.927Z,5.00
2018-11-25T23:24:03.652Z,4.90
2018-11-25T23:26:31.725Z,4.80
2018-11-25T23:28:59.794Z,4.80
2018-11-25T23:31:27.836Z,4.80
2018-11-25T23:33:55.899Z,4.80
2018-11-25T23:36:23.993Z,4.80
2018-11-25T23:38:52.092Z,4.70
2018-11-25T23:41:20.213Z,4.60
2018-11-25T23:43:48.303Z,4.70
2018-11-25T23:46:17.921Z,4.60
2018-11-25T23:48:46.019Z,4.60
2018-11-25T23:51:14.086Z,4.60
2018-11-25T23:53:49.204Z,4.60
2018-11-25T23:56:17.277Z,4.70
2018-11-25T23:58:45.353Z,4.70
